sensor_id;sensor_type;location;lat;lon;timestamp;temperature;humidity
6468;DHT22;3267;48.794;9.928;2023-08-12T04:03:00;24.20;66.00
6468;DHT22;3267;48.794;9.928;2023-08-12T04:05:27;24.20;66.00
6468;DHT22;3267;48.794;9.928;2023-08-12T04:07:53;24.20;66.00
6468;DHT22;3267;48.794;9.928;2023-08-12T04:10:18;24.20;66.00
6468;DHT22;3267;48.794;9.928;2023-08-12T04:12:44;24.20;66.70
6468;DHT22;3267;48.794;9.928;2023-08-12T04:15:10;24.20;66.20
6468;DHT22;3267;48.794;9.928;2023-08-12T04:17:36;24.30;66.00
6468;DHT22;3267;48.794;9.928;2023-08-12T04:20:02;24.30;66.30
6468;DHT22;3267;48.794;9.928;2023-08-12T04:22:31;24.30;66.40
6468;DHT22;3267;48.794;9.928;2023-08-12T04:24:56;24.30;66.20
6468;DHT22;3267;48.794;9.928;2023-08-12T04:27:22;24.30;66.40
6468;DHT22;3267;48.794;9.928;2023-08-12T04:29:47;24.20;66.30
6468;DHT22;3267;48.794;9.928;2023-08-12T04:32:13;24.40;66.60
6468;DHT22;3267;48.794;9.928;2023-08-12T04:34:39;24.30;66.40
6468;DHT22;3267;48.794;9.928;2023-08-12T04:37:04;24.40;66.70
6468;DHT22;3267;48.794;9.928;2023-08-12T04:39:30;24.70;67.00
6468;DHT22;3267;48.794;9.928;2023-08-12T04:41:57;25.30;67.50
6468;DHT22;3267;48.794;9.928;2023-08-12T04:44:23;24.70;67.00
6468;DHT22;3267;48.794;9.928;2023-08-12T04:46:49;24.50;66.80
6468;DHT22;3267;48.794;9.928;2023-08-12T04:49:15;24.50;66.80
6468;DHT22;3267;48.794;9.928;2023-08-12T04:51:41;24.90;67.30
6468;DHT22;3267;48.794;9.928;2023-08-12T04:54:07;24.40;66.90
6468;DHT22;3267;48.794;9.928;2023-08-12T04:56:33;24.40;66.70
6468;DHT22;3267;48.794;9.928;2023-08-12T04:58:59;24.50;66.80
6468;DHT22;3267;48.794;9.928;2023-08-12T05:01:24;24.50;66.90
6468;DHT22;3267;48.794;9.928;2023-08-12T05:03:50;24.50;66.90
6468;DHT22;3267;48.794;9.928;2023-08-12T05:06:15;24.60;67.10
6468;DHT22;3267;48.794;9.928;2023-08-12T05:08:41;24.60;67.10
6468;DHT22;3267;48.794;9.928;2023-08-12T05:11:07;24.60;67.20
6468;DHT22;3267;48.794;9.928;2023-08-12T05:13:33;24.60;67.10
6468;DHT22;3267;48.794;9.928;2023-08-12T05:15:59;24.60;67.20
6468;DHT22;3267;48.794;9.928;2023-08-12T05:18:24;24.70;67.30
6468;DHT22;3267;48.794;9.928;2023-08-12T05:20:52;24.70;67.30
6468;DHT22;3267;48.794;9.928;2023-08-12T05:23:19;24.70;67.30
6468;DHT22;3267;48.794;9.928;2023-08-12T05:25:45;24.60;67.20
6468;DHT22;3267;48.794;9.928;2023-08-12T05:28:11;24.70;67.40
6468;DHT22;3267;48.794;9.928;2023-08-12T05:30:36;24.60;67.40
6468;DHT22;3267;48.794;9.928;2023-08-12T05:33:03;24.60;67.60
6468;DHT22;3267;48.794;9.928;2023-08-12T05:35:32;24.50;67.80
6468;DHT22;3267;48.794;9.928;2023-08-12T05:37:58;24.50;67.90
6468;DHT22;3267;48.794;9.928;2023-08-12T05:40:23;24.40;68.00
6468;DHT22;3267;48.794;9.928;2023-08-12T05:42:49;24.30;68.10
6468;DHT22;3267;48.794;9.928;2023-08-12T05:45:15;24.20;68.10
6468;DHT22;3267;48.794;9.928;2023-08-12T05:47:41;24.20;68.30
6468;DHT22;3267;48.794;9.928;2023-08-12T05:50:07;24.20;68.40
6468;DHT22;3267;48.794;9.928;2023-08-12T05:52:32;24.10;68.40
6468;DHT22;3267;48.794;9.928;2023-08-12T05:54:58;24.90;69.30
6468;DHT22;3267;48.794;9.928;2023-08-12T05:57:24;24.10;68.50
6468;DHT22;3267;48.794;9.928;2023-08-12T05:59:49;24.10;68.50
6468;DHT22;3267;48.794;9.928;2023-08-12T06:02:15;24.00;68.70
6468;DHT22;3267;48.794;9.928;2023-08-12T06:04:41;24.00;68.80
6468;DHT22;3267;48.794;9.928;2023-08-12T06:07:06;24.10;68.90
6468;DHT22;3267;48.794;9.928;2023-08-12T06:09:32;24.00;68.90
6468;DHT22;3267;48.794;9.928;2023-08-12T06:11:57;24.10;68.70
6468;DHT22;3267;48.794;9.928;2023-08-12T06:14:23;24.10;68.70
6468;DHT22;3267;48.794;9.928;2023-08-12T06:16:49;24.20;68.60
6468;DHT22;3267;48.794;9.928;2023-08-12T06:19:14;24.30;68.20
6468;DHT22;3267;48.794;9.928;2023-08-12T06:21:40;24.40;68.50
6468;DHT22;3267;48.794;9.928;2023-08-12T06:24:05;24.60;68.30
6468;DHT22;3267;48.794;9.928;2023-08-12T06:26:31;24.80;68.10
6468;DHT22;3267;48.794;9.928;2023-08-12T06:28:57;24.90;68.30
6468;DHT22;3267;48.794;9.928;2023-08-12T06:31:22;24.90;68.30
6468;DHT22;3267;48.794;9.928;2023-08-12T06:33:48;24.90;68.40
6468;DHT22;3267;48.794;9.928;2023-08-12T06:36:13;26.90;69.90
6468;DHT22;3267;48.794;9.928;2023-08-12T06:38:39;25.30;68.70
6468;DHT22;3267;48.794;9.928;2023-08-12T06:41:05;24.90;69.40
6468;DHT22;3267;48.794;9.928;2023-08-12T06:43:30;24.90;68.80
6468;DHT22;3267;48.794;9.928;2023-08-12T06:45:56;25.30;69.10
6468;DHT22;3267;48.794;9.928;2023-08-12T06:48:21;24.80;69.00
6468;DHT22;3267;48.794;9.928;2023-08-12T06:50:53;24.70;69.00
6468;DHT22;3267;48.794;9.928;2023-08-12T06:53:19;24.60;69.00
6468;DHT22;3267;48.794;9.928;2023-08-12T06:55:45;25.00;69.80
6468;DHT22;3267;48.794;9.928;2023-08-12T06:58:14;25.00;69.90
6468;DHT22;3267;48.794;9.928;2023-08-12T07:00:40;24.60;69.50
6468;DHT22;3267;48.794;9.928;2023-08-12T07:03:06;24.60;69.70
6468;DHT22;3267;48.794;9.928;2023-08-12T07:05:31;24.50;69.40
6468;DHT22;3267;48.794;9.928;2023-08-12T07:07:57;24.50;69.40
6468;DHT22;3267;48.794;9.928;2023-08-12T07:10:23;24.50;69.40
6468;DHT22;3267;48.794;9.928;2023-08-12T07:12:48;25.20;70.30
6468;DHT22;3267;48.794;9.928;2023-08-12T07:15:14;26.80;71.40
6468;DHT22;3267;48.794;9.928;2023-08-12T07:17:39;24.60;69.60
6468;DHT22;3267;48.794;9.928;2023-08-12T07:20:06;24.60;69.50
6468;DHT22;3267;48.794;9.928;2023-08-12T07:22:32;24.70;69.60
6468;DHT22;3267;48.794;9.928;2023-08-12T07:24:58;24.80;69.50
6468;DHT22;3267;48.794;9.928;2023-08-12T07:27:26;24.80;69.60
6468;DHT22;3267;48.794;9.928;2023-08-12T07:29:52;26.40;70.90
6468;DHT22;3267;48.794;9.928;2023-08-12T07:32:17;24.90;69.80
6468;DHT22;3267;48.794;9.928;2023-08-12T07:34:44;24.90;69.70
6468;DHT22;3267;48.794;9.928;2023-08-12T07:37:10;25.00;70.00
6468;DHT22;3267;48.794;9.928;2023-08-12T07:39:36;26.00;70.60
6468;DHT22;3267;48.794;9.928;2023-08-12T07:42:02;27.40;71.70
6468;DHT22;3267;48.794;9.928;2023-08-12T07:44:27;24.90;69.70
6468;DHT22;3267;48.794;9.928;2023-08-12T07:46:53;25.00;69.90
6468;DHT22;3267;48.794;9.928;2023-08-12T07:49:19;25.00;70.00
6468;DHT22;3267;48.794;9.928;2023-08-12T07:51:44;25.00;69.80
6468;DHT22;3267;48.794;9.928;2023-08-12T07:54:10;25.60;70.20
6468;DHT22;3267;48.794;9.928;2023-08-12T07:56:36;25.10;69.80
6468;DHT22;3267;48.794;9.928;2023-08-12T07:59:01;25.10;69.70
6468;DHT22;3267;48.794;9.928;2023-08-12T08:01:27;25.10;69.60
6468;DHT22;3267;48.794;9.928;2023-08-12T08:03:53;25.20;69.50
6468;DHT22;3267;48.794;9.928;2023-08-12T08:06:18;25.30;69.60
6468;DHT22;3267;48.794;9.928;2023-08-12T08:08:44;25.40;69.40
6468;DHT22;3267;48.794;9.928;2023-08-12T08:11:09;25.40;69.30
6468;DHT22;3267;48.794;9.928;2023-08-12T08:13:35;25.70;69.30
6468;DHT22;3267;48.794;9.928;2023-08-12T08:16:01;27.90;71.00
6468;DHT22;3267;48.794;9.928;2023-08-12T08:18:26;26.90;69.90
6468;DHT22;3267;48.794;9.928;2023-08-12T08:20:52;26.20;69.30
6468;DHT22;3267;48.794;9.928;2023-08-12T08:23:17;26.90;69.70
6468;DHT22;3267;48.794;9.928;2023-08-12T08:25:43;27.90;70.40
6468;DHT22;3267;48.794;9.928;2023-08-12T08:28:09;26.30;68.80
6468;DHT22;3267;48.794;9.928;2023-08-12T08:30:34;26.50;68.50
6468;DHT22;3267;48.794;9.928;2023-08-12T08:33:00;26.80;70.40
6468;DHT22;3267;48.794;9.928;2023-08-12T08:35:25;26.50;69.80
6468;DHT22;3267;48.794;9.928;2023-08-12T08:37:51;26.80;70.20
6468;DHT22;3267;48.794;9.928;2023-08-12T08:40:17;28.10;70.70
6468;DHT22;3267;48.794;9.928;2023-08-12T08:42:43;26.70;69.90
6468;DHT22;3267;48.794;9.928;2023-08-12T08:45:13;26.70;70.20
6468;DHT22;3267;48.794;9.928;2023-08-12T08:47:41;26.80;70.00
6468;DHT22;3267;48.794;9.928;2023-08-12T08:50:08;26.80;69.90
6468;DHT22;3267;48.794;9.928;2023-08-12T08:52:34;26.80;70.10
6468;DHT22;3267;48.794;9.928;2023-08-12T08:55:03;27.00;70.80
6468;DHT22;3267;48.794;9.928;2023-08-12T08:57:29;26.90;70.40
6468;DHT22;3267;48.794;9.928;2023-08-12T08:59:55;27.00;70.10
6468;DHT22;3267;48.794;9.928;2023-08-12T09:02:22;27.00;70.20
6468;DHT22;3267;48.794;9.928;2023-08-12T09:04:51;27.10;70.50
6468;DHT22;3267;48.794;9.928;2023-08-12T09:07:17;27.10;70.90
6468;DHT22;3267;48.794;9.928;2023-08-12T09:09:45;27.10;70.20
6468;DHT22;3267;48.794;9.928;2023-08-12T09:12:16;28.70;71.50
6468;DHT22;3267;48.794;9.928;2023-08-12T09:14:42;27.10;70.20
6468;DHT22;3267;48.794;9.928;2023-08-12T09:17:09;27.30;70.00
6468;DHT22;3267;48.794;9.928;2023-08-12T09:19:34;27.30;70.10
6468;DHT22;3267;48.794;9.928;2023-08-12T09:22:03;28.50;70.90
6468;DHT22;3267;48.794;9.928;2023-08-12T09:24:29;27.40;70.00
6468;DHT22;3267;48.794;9.928;2023-08-12T09:26:55;29.70;72.10
6468;DHT22;3267;48.794;9.928;2023-08-12T09:29:30;29.40;71.60
6468;DHT22;3267;48.794;9.928;2023-08-12T09:32:19;27.50;70.50
6468;DHT22;3267;48.794;9.928;2023-08-12T09:34:50;27.60;71.50
6468;DHT22;3267;48.794;9.928;2023-08-12T09:37:18;27.60;70.40
6468;DHT22;3267;48.794;9.928;2023-08-12T09:39:44;25.60;68.50
6468;DHT22;3267;48.794;9.928;2023-08-12T09:42:11;27.80;69.90
6468;DHT22;3267;48.794;9.928;2023-08-12T09:44:37;27.90;69.90
6468;DHT22;3267;48.794;9.928;2023-08-12T09:47:03;28.00;69.80
6468;DHT22;3267;48.794;9.928;2023-08-12T09:49:30;28.20;69.80
6468;DHT22;3267;48.794;9.928;2023-08-12T09:51:56;28.30;69.50
6468;DHT22;3267;48.794;9.928;2023-08-12T09:54:22;28.50;69.60
6468;DHT22;3267;48.794;9.928;2023-08-12T09:56:55;28.50;69.80
6468;DHT22;3267;48.794;9.928;2023-08-12T09:59:22;28.80;69.80
6468;DHT22;3267;48.794;9.928;2023-08-12T10:01:49;28.50;69.20
6468;DHT22;3267;48.794;9.928;2023-08-12T10:04:17;28.80;69.50
6468;DHT22;3267;48.794;9.928;2023-08-12T10:06:44;29.00;69.10
6468;DHT22;3267;48.794;9.928;2023-08-12T10:09:10;29.50;70.00
6468;DHT22;3267;48.794;9.928;2023-08-12T10:11:37;29.20;69.80
6468;DHT22;3267;48.794;9.928;2023-08-12T10:14:06;29.80;70.10
6468;DHT22;3267;48.794;9.928;2023-08-12T10:16:36;29.00;69.40
6468;DHT22;3267;48.794;9.928;2023-08-12T10:19:06;29.30;69.40
6468;DHT22;3267;48.794;9.928;2023-08-12T10:21:32;29.30;69.90
6468;DHT22;3267;48.794;9.928;2023-08-12T10:23:59;29.30;69.70
6468;DHT22;3267;48.794;9.928;2023-08-12T10:26:26;29.40;70.00
6468;DHT22;3267;48.794;9.928;2023-08-12T10:28:52;29.40;69.80
6468;DHT22;3267;48.794;9.928;2023-08-12T10:31:18;30.10;70.30
6468;DHT22;3267;48.794;9.928;2023-08-12T10:33:45;29.60;69.50
6468;DHT22;3267;48.794;9.928;2023-08-12T10:36:15;29.70;69.60
6468;DHT22;3267;48.794;9.928;2023-08-12T10:38:43;29.80;68.40
6468;DHT22;3267;48.794;9.928;2023-08-12T10:41:19;29.80;69.10
6468;DHT22;3267;48.794;9.928;2023-08-12T10:43:59;29.90;68.90
6468;DHT22;3267;48.794;9.928;2023-08-12T10:46:31;30.00;68.90
6468;DHT22;3267;48.794;9.928;2023-08-12T10:54:16;30.30;68.00
6468;DHT22;3267;48.794;9.928;2023-08-12T10:57:04;30.40;67.50
6468;DHT22;3267;48.794;9.928;2023-08-12T11:02:26;30.70;65.90
6468;DHT22;3267;48.794;9.928;2023-08-12T11:04:56;30.70;66.20
6468;DHT22;3267;48.794;9.928;2023-08-12T11:10:14;30.80;65.90
6468;DHT22;3267;48.794;9.928;2023-08-12T11:12:42;31.00;64.90
6468;DHT22;3267;48.794;9.928;2023-08-12T11:15:11;31.10;65.30
6468;DHT22;3267;48.794;9.928;2023-08-12T11:17:39;33.70;66.30
6468;DHT22;3267;48.794;9.928;2023-08-12T11:20:10;31.50;64.30
6468;DHT22;3267;48.794;9.928;2023-08-12T11:22:40;31.20;64.20
6468;DHT22;3267;48.794;9.928;2023-08-12T11:25:11;31.30;64.00
6468;DHT22;3267;48.794;9.928;2023-08-12T11:27:42;31.40;63.20
6468;DHT22;3267;48.794;9.928;2023-08-12T11:30:10;31.50;63.50
6468;DHT22;3267;48.794;9.928;2023-08-12T11:32:37;31.50;64.10
6468;DHT22;3267;48.794;9.928;2023-08-12T11:35:05;31.50;63.70
6468;DHT22;3267;48.794;9.928;2023-08-12T11:37:33;31.60;63.70
6468;DHT22;3267;48.794;9.928;2023-08-12T11:40:01;31.70;64.90
6468;DHT22;3267;48.794;9.928;2023-08-12T11:42:28;31.90;64.40
6468;DHT22;3267;48.794;9.928;2023-08-12T11:44:54;31.80;63.80
6468;DHT22;3267;48.794;9.928;2023-08-12T11:47:19;31.80;63.60
6468;DHT22;3267;48.794;9.928;2023-08-12T11:49:45;31.80;63.30
6468;DHT22;3267;48.794;9.928;2023-08-12T11:52:11;32.40;64.00
6468;DHT22;3267;48.794;9.928;2023-08-12T11:54:38;32.00;63.60
6468;DHT22;3267;48.794;9.928;2023-08-12T11:57:04;32.30;63.70
6468;DHT22;3267;48.794;9.928;2023-08-12T11:59:30;32.40;64.10
6468;DHT22;3267;48.794;9.928;2023-08-12T12:01:56;32.20;63.80
6468;DHT22;3267;48.794;9.928;2023-08-12T12:04:22;32.30;63.90
6468;DHT22;3267;48.794;9.928;2023-08-12T12:06:48;32.30;62.70
6468;DHT22;3267;48.794;9.928;2023-08-12T12:09:15;32.30;62.60
6468;DHT22;3267;48.794;9.928;2023-08-12T12:11:41;32.30;63.10
6468;DHT22;3267;48.794;9.928;2023-08-12T12:14:09;32.40;63.60
6468;DHT22;3267;48.794;9.928;2023-08-12T12:16:43;32.50;64.10
6468;DHT22;3267;48.794;9.928;2023-08-12T12:19:17;32.60;63.20
6468;DHT22;3267;48.794;9.928;2023-08-12T12:21:45;32.60;61.90
6468;DHT22;3267;48.794;9.928;2023-08-12T12:24:11;32.70;62.00
6468;DHT22;3267;48.794;9.928;2023-08-12T12:26:37;32.70;61.50
6468;DHT22;3267;48.794;9.928;2023-08-12T12:29:06;33.20;62.40
6468;DHT22;3267;48.794;9.928;2023-08-12T12:31:33;32.90;61.60
6468;DHT22;3267;48.794;9.928;2023-08-12T12:34:00;33.00;62.10
6468;DHT22;3267;48.794;9.928;2023-08-12T12:36:26;33.00;61.10
6468;DHT22;3267;48.794;9.928;2023-08-12T12:38:51;33.10;61.30
6468;DHT22;3267;48.794;9.928;2023-08-12T12:41:17;33.20;61.50
6468;DHT22;3267;48.794;9.928;2023-08-12T12:43:42;33.30;61.40
6468;DHT22;3267;48.794;9.928;2023-08-12T12:46:08;33.30;60.80
6468;DHT22;3267;48.794;9.928;2023-08-12T12:48:34;33.90;61.10
6468;DHT22;3267;48.794;9.928;2023-08-12T12:50:59;33.50;60.60
6468;DHT22;3267;48.794;9.928;2023-08-12T12:53:25;33.60;61.00
6468;DHT22;3267;48.794;9.928;2023-08-12T12:55:51;33.70;61.40
6468;DHT22;3267;48.794;9.928;2023-08-12T12:58:16;33.80;60.90
6468;DHT22;3267;48.794;9.928;2023-08-12T13:00:42;33.90;60.20
6468;DHT22;3267;48.794;9.928;2023-08-12T13:03:08;33.90;59.30
6468;DHT22;3267;48.794;9.928;2023-08-12T13:05:33;34.00;60.30
6468;DHT22;3267;48.794;9.928;2023-08-12T13:07:59;33.90;59.50
6468;DHT22;3267;48.794;9.928;2023-08-12T13:10:25;34.00;60.00
6468;DHT22;3267;48.794;9.928;2023-08-12T13:12:50;33.90;59.50
6468;DHT22;3267;48.794;9.928;2023-08-12T13:15:16;33.90;59.80
6468;DHT22;3267;48.794;9.928;2023-08-12T13:17:42;33.70;59.50
6468;DHT22;3267;48.794;9.928;2023-08-12T13:20:08;33.40;58.40
6468;DHT22;3267;48.794;9.928;2023-08-12T13:22:35;33.10;58.30
6468;DHT22;3267;48.794;9.928;2023-08-12T13:25:01;33.10;62.00
6468;DHT22;3267;48.794;9.928;2023-08-12T13:27:26;32.50;64.20
6468;DHT22;3267;48.794;9.928;2023-08-12T13:29:52;31.80;67.80
6468;DHT22;3267;48.794;9.928;2023-08-12T13:32:17;31.40;68.60
6468;DHT22;3267;48.794;9.928;2023-08-12T13:34:43;31.00;70.00
6468;DHT22;3267;48.794;9.928;2023-08-12T13:37:11;30.80;72.10
6468;DHT22;3267;48.794;9.928;2023-08-12T13:39:38;30.10;71.30
6468;DHT22;3267;48.794;9.928;2023-08-12T13:42:04;29.80;72.50
6468;DHT22;3267;48.794;9.928;2023-08-12T13:44:29;30.40;73.80
6468;DHT22;3267;48.794;9.928;2023-08-12T13:46:55;29.40;73.60
6468;DHT22;3267;48.794;9.928;2023-08-12T13:49:20;29.30;73.80
6468;DHT22;3267;48.794;9.928;2023-08-12T13:51:48;29.50;73.80
6468;DHT22;3267;48.794;9.928;2023-08-12T13:54:13;29.20;73.80
6468;DHT22;3267;48.794;9.928;2023-08-12T13:56:42;29.20;74.00
6468;DHT22;3267;48.794;9.928;2023-08-12T13:59:07;29.30;75.70
6468;DHT22;3267;48.794;9.928;2023-08-12T14:01:33;29.70;75.60
6468;DHT22;3267;48.794;9.928;2023-08-12T14:04:00;29.30;74.80
6468;DHT22;3267;48.794;9.928;2023-08-12T14:06:25;29.30;75.50
6468;DHT22;3267;48.794;9.928;2023-08-12T14:08:51;29.30;75.80
6468;DHT22;3267;48.794;9.928;2023-08-12T14:11:16;30.00;75.90
6468;DHT22;3267;48.794;9.928;2023-08-12T14:13:42;29.20;75.50
6468;DHT22;3267;48.794;9.928;2023-08-12T14:16:08;29.20;75.80
6468;DHT22;3267;48.794;9.928;2023-08-12T14:18:34;29.20;76.50
6468;DHT22;3267;48.794;9.928;2023-08-12T14:20:59;29.20;75.90
6468;DHT22;3267;48.794;9.928;2023-08-12T14:23:25;29.20;76.20
6468;DHT22;3267;48.794;9.928;2023-08-12T14:25:51;29.20;75.90
6468;DHT22;3267;48.794;9.928;2023-08-12T14:28:16;30.80;77.40
6468;DHT22;3267;48.794;9.928;2023-08-12T14:30:42;29.20;75.90
6468;DHT22;3267;48.794;9.928;2023-08-12T14:33:07;30.40;76.70
6468;DHT22;3267;48.794;9.928;2023-08-12T14:35:36;29.90;76.30
6468;DHT22;3267;48.794;9.928;2023-08-12T14:38:02;29.60;76.40
6468;DHT22;3267;48.794;9.928;2023-08-12T14:40:28;29.00;75.70
6468;DHT22;3267;48.794;9.928;2023-08-12T14:42:54;29.00;75.70
6468;DHT22;3267;48.794;9.928;2023-08-12T14:45:20;29.40;75.90
6468;DHT22;3267;48.794;9.928;2023-08-12T14:47:46;29.00;75.70
6468;DHT22;3267;48.794;9.928;2023-08-12T14:50:11;29.00;75.50
6468;DHT22;3267;48.794;9.928;2023-08-12T14:52:37;30.90;77.20
6468;DHT22;3267;48.794;9.928;2023-08-12T14:55:03;30.10;76.40
6468;DHT22;3267;48.794;9.928;2023-08-12T14:57:28;29.50;75.30
6468;DHT22;3267;48.794;9.928;2023-08-12T14:59:54;30.00;74.90
6468;DHT22;3267;48.794;9.928;2023-08-12T15:02:21;31.50;74.80
6468;DHT22;3267;48.794;9.928;2023-08-12T15:04:48;30.50;73.40
6468;DHT22;3267;48.794;9.928;2023-08-12T15:07:14;30.80;72.80
6468;DHT22;3267;48.794;9.928;2023-08-12T15:09:41;31.30;72.10
6468;DHT22;3267;48.794;9.928;2023-08-12T15:12:07;32.00;71.50
6468;DHT22;3267;48.794;9.928;2023-08-12T15:14:33;32.80;70.70
6468;DHT22;3267;48.794;9.928;2023-08-12T15:16:59;33.60;69.80
6468;DHT22;3267;48.794;9.928;2023-08-12T15:19:24;34.50;69.30
6468;DHT22;3267;48.794;9.928;2023-08-12T15:21:50;35.30;69.70
6468;DHT22;3267;48.794;9.928;2023-08-12T15:24:16;35.90;68.30
6468;DHT22;3267;48.794;9.928;2023-08-12T15:26:42;36.90;66.90
6468;DHT22;3267;48.794;9.928;2023-08-12T15:29:08;37.30;65.40
6468;DHT22;3267;48.794;9.928;2023-08-12T15:31:34;37.80;66.20
6468;DHT22;3267;48.794;9.928;2023-08-12T15:34:00;38.20;65.70
6468;DHT22;3267;48.794;9.928;2023-08-12T15:36:26;39.20;65.80
6468;DHT22;3267;48.794;9.928;2023-08-12T15:38:52;39.00;64.90
6468;DHT22;3267;48.794;9.928;2023-08-12T15:41:17;39.20;63.50
6468;DHT22;3267;48.794;9.928;2023-08-12T15:43:43;39.60;63.00
6468;DHT22;3267;48.794;9.928;2023-08-12T15:46:09;38.50;61.10
6468;DHT22;3267;48.794;9.928;2023-08-12T15:48:34;38.10;63.20
6468;DHT22;3267;48.794;9.928;2023-08-12T15:51:01;37.50;63.90
6468;DHT22;3267;48.794;9.928;2023-08-12T15:53:27;34.50;63.40
6468;DHT22;3267;48.794;9.928;2023-08-12T15:55:53;36.60;65.80
6468;DHT22;3267;48.794;9.928;2023-08-12T15:58:18;36.20;67.00
6468;DHT22;3267;48.794;9.928;2023-08-12T16:00:47;36.00;67.90
6468;DHT22;3267;48.794;9.928;2023-08-12T16:03:15;35.90;67.90
6468;DHT22;3267;48.794;9.928;2023-08-12T16:05:44;35.90;68.00
6468;DHT22;3267;48.794;9.928;2023-08-12T16:08:10;35.90;67.80
6468;DHT22;3267;48.794;9.928;2023-08-12T16:10:36;36.00;68.10
6468;DHT22;3267;48.794;9.928;2023-08-12T16:13:02;36.10;68.60
6468;DHT22;3267;48.794;9.928;2023-08-12T16:15:29;36.10;67.60
6468;DHT22;3267;48.794;9.928;2023-08-12T16:17:55;35.80;67.10
6468;DHT22;3267;48.794;9.928;2023-08-12T16:20:21;36.40;68.30
6468;DHT22;3267;48.794;9.928;2023-08-12T16:22:46;35.10;67.90
6468;DHT22;3267;48.794;9.928;2023-08-12T16:25:12;34.80;67.30
6468;DHT22;3267;48.794;9.928;2023-08-12T16:27:37;34.20;68.70
6468;DHT22;3267;48.794;9.928;2023-08-12T16:30:03;33.80;68.70
6468;DHT22;3267;48.794;9.928;2023-08-12T16:32:30;33.40;69.40
6468;DHT22;3267;48.794;9.928;2023-08-12T16:34:55;33.10;69.00
6468;DHT22;3267;48.794;9.928;2023-08-12T16:37:21;34.70;71.00
6468;DHT22;3267;48.794;9.928;2023-08-12T16:39:47;32.50;71.10
6468;DHT22;3267;48.794;9.928;2023-08-12T16:42:13;33.10;73.00
6468;DHT22;3267;48.794;9.928;2023-08-12T16:44:38;31.90;71.80
6468;DHT22;3267;48.794;9.928;2023-08-12T16:47:04;31.60;72.00
6468;DHT22;3267;48.794;9.928;2023-08-12T16:49:30;31.40;72.20
6468;DHT22;3267;48.794;9.928;2023-08-12T16:51:55;31.20;72.60
6468;DHT22;3267;48.794;9.928;2023-08-12T16:54:21;31.90;73.40
6468;DHT22;3267;48.794;9.928;2023-08-12T16:56:46;31.10;73.30
6468;DHT22;3267;48.794;9.928;2023-08-12T16:59:12;31.00;73.10
6468;DHT22;3267;48.794;9.928;2023-08-12T17:01:37;32.50;74.20
6468;DHT22;3267;48.794;9.928;2023-08-12T17:04:03;31.30;73.50
6468;DHT22;3267;48.794;9.928;2023-08-12T17:06:31;30.70;72.80
6468;DHT22;3267;48.794;9.928;2023-08-12T17:08:56;30.60;73.00
6468;DHT22;3267;48.794;9.928;2023-08-12T17:11:22;31.00;74.30
6468;DHT22;3267;48.794;9.928;2023-08-12T17:13:51;32.80;76.50
6468;DHT22;3267;48.794;9.928;2023-08-12T17:16:16;30.40;75.10
6468;DHT22;3267;48.794;9.928;2023-08-12T17:18:42;30.30;75.30
6468;DHT22;3267;48.794;9.928;2023-08-12T17:21:07;30.80;76.70
6468;DHT22;3267;48.794;9.928;2023-08-12T17:23:33;29.70;76.50
6468;DHT22;3267;48.794;9.928;2023-08-12T17:25:59;29.50;75.10
6468;DHT22;3267;48.794;9.928;2023-08-12T17:28:24;29.40;74.80
6468;DHT22;3267;48.794;9.928;2023-08-12T17:30:50;29.40;74.70
6468;DHT22;3267;48.794;9.928;2023-08-12T17:33:16;29.30;75.40
6468;DHT22;3267;48.794;9.928;2023-08-12T17:35:41;30.00;77.40
6468;DHT22;3267;48.794;9.928;2023-08-12T17:38:08;28.90;76.80
6468;DHT22;3267;48.794;9.928;2023-08-12T17:40:33;29.30;76.70
6468;DHT22;3267;48.794;9.928;2023-08-12T17:42:59;29.70;76.40
6468;DHT22;3267;48.794;9.928;2023-08-12T17:45:24;29.00;75.50
6468;DHT22;3267;48.794;9.928;2023-08-12T17:47:55;29.20;75.20
6468;DHT22;3267;48.794;9.928;2023-08-12T17:50:22;29.40;74.50
6468;DHT22;3267;48.794;9.928;2023-08-12T17:52:47;30.60;74.90
6468;DHT22;3267;48.794;9.928;2023-08-12T17:55:13;29.50;73.90
6468;DHT22;3267;48.794;9.928;2023-08-12T17:57:39;30.40;74.80
6468;DHT22;3267;48.794;9.928;2023-08-12T18:00:08;29.10;74.70
6468;DHT22;3267;48.794;9.928;2023-08-12T18:02:34;29.00;75.00
6468;DHT22;3267;48.794;9.928;2023-08-12T18:05:00;28.80;74.90
6468;DHT22;3267;48.794;9.928;2023-08-12T18:07:26;28.80;75.30
6468;DHT22;3267;48.794;9.928;2023-08-12T18:09:51;28.80;75.40
6468;DHT22;3267;48.794;9.928;2023-08-12T18:12:17;28.80;74.90
6468;DHT22;3267;48.794;9.928;2023-08-12T18:14:43;28.80;74.70
6468;DHT22;3267;48.794;9.928;2023-08-12T18:17:09;30.10;75.60
6468;DHT22;3267;48.794;9.928;2023-08-12T18:19:35;28.70;74.70
6468;DHT22;3267;48.794;9.928;2023-08-12T18:22:01;28.60;75.90
6468;DHT22;3267;48.794;9.928;2023-08-12T18:24:26;28.30;75.80
6468;DHT22;3267;48.794;9.928;2023-08-12T18:26:52;28.30;75.80
6468;DHT22;3267;48.794;9.928;2023-08-12T18:29:18;28.60;76.30
6468;DHT22;3267;48.794;9.928;2023-08-12T18:31:43;28.20;75.50
6468;DHT22;3267;48.794;9.928;2023-08-12T18:34:12;28.70;76.20
6468;DHT22;3267;48.794;9.928;2023-08-12T18:36:38;28.20;76.60
6468;DHT22;3267;48.794;9.928;2023-08-12T18:39:04;27.90;76.50
6468;DHT22;3267;48.794;9.928;2023-08-12T18:41:29;27.90;76.50
6468;DHT22;3267;48.794;9.928;2023-08-12T18:43:55;27.80;76.50
6468;DHT22;3267;48.794;9.928;2023-08-12T18:46:21;27.70;76.50
6468;DHT22;3267;48.794;9.928;2023-08-12T18:48:47;29.30;77.90
6468;DHT22;3267;48.794;9.928;2023-08-12T18:51:12;28.50;77.60
6468;DHT22;3267;48.794;9.928;2023-08-12T18:53:38;29.30;78.10
6468;DHT22;3267;48.794;9.928;2023-08-12T18:56:04;27.50;77.20
6468;DHT22;3267;48.794;9.928;2023-08-12T18:58:29;28.00;77.70
6468;DHT22;3267;48.794;9.928;2023-08-12T19:00:55;27.40;78.10
6468;DHT22;3267;48.794;9.928;2023-08-12T19:03:20;27.80;77.60
6468;DHT22;3267;48.794;9.928;2023-08-12T19:05:46;28.00;78.20
6468;DHT22;3267;48.794;9.928;2023-08-12T19:08:13;29.70;79.70
6468;DHT22;3267;48.794;9.928;2023-08-12T19:10:40;29.20;79.20
6468;DHT22;3267;48.794;9.928;2023-08-12T19:13:08;28.10;79.00
6468;DHT22;3267;48.794;9.928;2023-08-12T19:15:34;28.50;79.30
6468;DHT22;3267;48.794;9.928;2023-08-12T19:17:59;27.80;78.90
6468;DHT22;3267;48.794;9.928;2023-08-12T19:20:25;28.10;79.10
6468;DHT22;3267;48.794;9.928;2023-08-12T19:22:51;26.90;78.50
6468;DHT22;3267;48.794;9.928;2023-08-12T19:25:17;26.90;78.70
6468;DHT22;3267;48.794;9.928;2023-08-12T19:27:43;28.90;80.30
6468;DHT22;3267;48.794;9.928;2023-08-12T19:30:09;26.80;77.90
6468;DHT22;3267;48.794;9.928;2023-08-12T19:32:51;26.80;78.90
6468;DHT22;3267;48.794;9.928;2023-08-12T19:35:18;26.80;79.20
6468;DHT22;3267;48.794;9.928;2023-08-12T19:37:44;30.00;81.80
6468;DHT22;3267;48.794;9.928;2023-08-12T19:40:11;27.00;79.00
6468;DHT22;3267;48.794;9.928;2023-08-12T19:42:37;26.70;79.10
6468;DHT22;3267;48.794;9.928;2023-08-12T19:45:03;26.60;78.80
6468;DHT22;3267;48.794;9.928;2023-08-12T19:47:30;26.70;78.60
6468;DHT22;3267;48.794;9.928;2023-08-12T19:49:57;26.70;78.30
6468;DHT22;3267;48.794;9.928;2023-08-12T19:52:22;26.70;78.00
6468;DHT22;3267;48.794;9.928;2023-08-12T19:54:48;26.80;78.00
6468;DHT22;3267;48.794;9.928;2023-08-12T19:57:14;26.50;78.00
6468;DHT22;3267;48.794;9.928;2023-08-12T19:59:39;26.50;78.30
6468;DHT22;3267;48.794;9.928;2023-08-12T20:02:05;26.40;78.40
6468;DHT22;3267;48.794;9.928;2023-08-12T20:04:31;26.40;78.60
6468;DHT22;3267;48.794;9.928;2023-08-12T20:06:56;26.30;78.50
6468;DHT22;3267;48.794;9.928;2023-08-12T20:09:23;26.30;78.30